sensor_id;sensor_type;location;lat;lon;timestamp;pressure;altitude;pressure_sealevel;temperature;humidity
41140;BME280;26881;48.784;9.192;2023-07-13T00:01:22;98538.00;;;21.41;48.28
41140;BME280;26881;48.784;9.192;2023-07-13T00:06:46;98532.09;;;21.21;48.34
41140;BME280;26881;48.784;9.192;2023-07-13T00:12:23;98537.34;;;21.13;48.61
41140;BME280;26881;48.784;9.192;2023-07-13T00:17:45;98530.13;;;20.97;48.86
41140;BME280;26881;48.784;9.192;2023-07-13T00:23:07;98529.75;;;20.92;49.06
41140;BME280;26881;48.784;9.192;2023-07-13T00:28:30;98527.22;;;20.82;49.05
41140;BME280;26881;48.784;9.192;2023-07-13T00:33:52;98528.50;;;20.78;48.97
41140;BME280;26881;48.784;9.192;2023-07-13T00:39:13;98529.09;;;20.64;49.06
41140;BME280;26881;48.784;9.192;2023-07-13T00:44:35;98537.97;;;20.55;49.43
41140;BME280;26881;48.784;9.192;2023-07-13T00:49:57;98540.56;;;20.47;49.33
41140;BME280;26881;48.784;9.192;2023-07-13T00:55:20;98548.47;;;20.38;49.71
41140;BME280;26881;48.784;9.192;2023-07-13T01:00:43;98556.78;;;20.43;48.99
41140;BME280;26881;48.784;9.192;2023-07-13T01:06:07;98563.41;;;20.39;49.35
41140;BME280;26881;48.784;9.192;2023-07-13T01:11:29;98551.88;;;20.31;48.88
41140;BME280;26881;48.784;9.192;2023-07-13T01:16:51;98566.00;;;20.31;48.66
41140;BME280;26881;48.784;9.192;2023-07-13T01:22:17;98553.63;;;20.22;48.75
41140;BME280;26881;48.784;9.192;2023-07-13T01:27:40;98557.47;;;20.28;47.92
41140;BME280;26881;48.784;9.192;2023-07-13T01:33:03;98561.91;;;20.19;48.70
41140;BME280;26881;48.784;9.192;2023-07-13T01:38:26;98566.53;;;20.17;48.85
41140;BME280;26881;48.784;9.192;2023-07-13T01:43:48;98567.06;;;20.03;48.86
41140;BME280;26881;48.784;9.192;2023-07-13T01:49:09;98563.34;;;19.95;49.46
41140;BME280;26881;48.784;9.192;2023-07-13T01:54:31;98564.63;;;19.91;50.10
41140;BME280;26881;48.784;9.192;2023-07-13T01:59:55;98571.91;;;19.89;50.18
41140;BME280;26881;48.784;9.192;2023-07-13T02:05:17;98567.63;;;19.78;49.76
41140;BME280;26881;48.784;9.192;2023-07-13T02:10:39;98567.09;;;19.75;50.49
41140;BME280;26881;48.784;9.192;2023-07-13T02:16:01;98584.00;;;19.74;50.84
41140;BME280;26881;48.784;9.192;2023-07-13T02:21:24;98575.75;;;19.67;50.53
41140;BME280;26881;48.784;9.192;2023-07-13T02:26:45;98579.16;;;19.59;51.11
41140;BME280;26881;48.784;9.192;2023-07-13T02:32:08;98580.72;;;19.52;50.45
41140;BME280;26881;48.784;9.192;2023-07-13T02:37:30;98588.16;;;19.49;51.47
41140;BME280;26881;48.784;9.192;2023-07-13T02:42:52;98596.25;;;19.47;52.81
41140;BME280;26881;48.784;9.192;2023-07-13T02:48:14;98598.69;;;19.31;51.46
41140;BME280;26881;48.784;9.192;2023-07-13T02:53:36;98597.53;;;19.06;52.19
41140;BME280;26881;48.784;9.192;2023-07-13T02:58:58;98598.09;;;19.00;52.71
41140;BME280;26881;48.784;9.192;2023-07-13T03:04:20;98597.66;;;19.04;52.36
41140;BME280;26881;48.784;9.192;2023-07-13T03:09:41;98606.34;;;18.87;53.59
41140;BME280;26881;48.784;9.192;2023-07-13T03:15:04;98609.97;;;18.76;54.35
41140;BME280;26881;48.784;9.192;2023-07-13T03:20:26;98613.50;;;18.77;53.80
41140;BME280;26881;48.784;9.192;2023-07-13T03:25:48;98616.66;;;18.90;53.91
41140;BME280;26881;48.784;9.192;2023-07-13T03:31:19;98626.31;;;18.91;54.47
41140;BME280;26881;48.784;9.192;2023-07-13T03:36:41;98630.31;;;18.95;53.47
41140;BME280;26881;48.784;9.192;2023-07-13T03:42:04;98633.53;;;18.99;54.23
41140;BME280;26881;48.784;9.192;2023-07-13T03:47:26;98639.38;;;19.12;52.87
41140;BME280;26881;48.784;9.192;2023-07-13T03:52:47;98639.22;;;19.23;52.94
41140;BME280;26881;48.784;9.192;2023-07-13T03:58:31;98645.88;;;19.37;51.99
41140;BME280;26881;48.784;9.192;2023-07-13T04:03:53;98643.44;;;19.44;53.75
41140;BME280;26881;48.784;9.192;2023-07-13T04:09:15;98649.63;;;19.44;51.70
41140;BME280;26881;48.784;9.192;2023-07-13T04:14:37;98651.56;;;19.42;52.07
41140;BME280;26881;48.784;9.192;2023-07-13T04:19:59;98646.25;;;19.42;52.07
41140;BME280;26881;48.784;9.192;2023-07-13T04:25:21;98652.84;;;19.38;51.82
41140;BME280;26881;48.784;9.192;2023-07-13T04:30:44;98662.44;;;19.39;50.66
41140;BME280;26881;48.784;9.192;2023-07-13T04:36:06;98663.28;;;19.49;50.06
41140;BME280;26881;48.784;9.192;2023-07-13T04:41:31;98664.09;;;19.50;50.10
41140;BME280;26881;48.784;9.192;2023-07-13T04:46:53;98664.94;;;19.50;49.91
41140;BME280;26881;48.784;9.192;2023-07-13T04:52:15;98670.53;;;19.47;50.54
41140;BME280;26881;48.784;9.192;2023-07-13T04:57:37;98669.44;;;19.40;50.82
41140;BME280;26881;48.784;9.192;2023-07-13T05:02:59;98670.53;;;19.47;50.57
41140;BME280;26881;48.784;9.192;2023-07-13T05:08:21;98666.44;;;19.53;49.47
41140;BME280;26881;48.784;9.192;2023-07-13T05:13:44;98680.81;;;19.60;49.18
41140;BME280;26881;48.784;9.192;2023-07-13T05:19:06;98684.31;;;19.70;49.21
41140;BME280;26881;48.784;9.192;2023-07-13T05:24:28;98679.28;;;19.95;48.45
41140;BME280;26881;48.784;9.192;2023-07-13T05:29:49;98678.13;;;20.07;48.21
41140;BME280;26881;48.784;9.192;2023-07-13T05:35:11;98674.34;;;20.10;47.42
41140;BME280;26881;48.784;9.192;2023-07-13T05:40:33;98684.75;;;19.93;47.92
41140;BME280;26881;48.784;9.192;2023-07-13T05:45:56;98688.13;;;19.86;47.99
41140;BME280;26881;48.784;9.192;2023-07-13T05:51:18;98688.69;;;19.89;47.71
41140;BME280;26881;48.784;9.192;2023-07-13T05:56:40;98686.09;;;19.79;47.64
41140;BME280;26881;48.784;9.192;2023-07-13T06:02:02;98691.66;;;19.86;47.48
41140;BME280;26881;48.784;9.192;2023-07-13T06:07:24;98688.81;;;19.88;47.84
41140;BME280;26881;48.784;9.192;2023-07-13T06:12:46;98704.34;;;19.83;47.88
41140;BME280;26881;48.784;9.192;2023-07-13T06:18:08;98707.09;;;20.00;47.67
41140;BME280;26881;48.784;9.192;2023-07-13T06:23:30;98718.09;;;20.33;46.72
41140;BME280;26881;48.784;9.192;2023-07-13T06:28:52;98717.72;;;20.46;46.63
41140;BME280;26881;48.784;9.192;2023-07-13T06:34:14;98718.13;;;20.69;45.69
41140;BME280;26881;48.784;9.192;2023-07-13T06:39:36;98726.72;;;20.81;45.02
41140;BME280;26881;48.784;9.192;2023-07-13T06:44:58;98733.69;;;21.00;44.47
41140;BME280;26881;48.784;9.192;2023-07-13T06:50:20;98732.97;;;21.34;43.86
41140;BME280;26881;48.784;9.192;2023-07-13T06:55:43;98732.00;;;21.87;43.18
41140;BME280;26881;48.784;9.192;2023-07-13T07:01:05;98733.63;;;22.14;43.07
41140;BME280;26881;48.784;9.192;2023-07-13T07:06:29;98737.69;;;21.92;42.16
41140;BME280;26881;48.784;9.192;2023-07-13T07:11:51;98746.84;;;21.89;41.44
41140;BME280;26881;48.784;9.192;2023-07-13T07:17:24;98740.94;;;22.12;40.64
41140;BME280;26881;48.784;9.192;2023-07-13T07:22:48;98743.53;;;22.30;40.04
41140;BME280;26881;48.784;9.192;2023-07-13T07:28:11;98737.63;;;22.52;40.19
41140;BME280;26881;48.784;9.192;2023-07-13T07:33:34;98733.47;;;22.75;38.66
41140;BME280;26881;48.784;9.192;2023-07-13T07:38:55;98735.16;;;22.84;37.89
41140;BME280;26881;48.784;9.192;2023-07-13T07:44:16;98728.66;;;22.86;38.13
41140;BME280;26881;48.784;9.192;2023-07-13T07:49:38;98738.06;;;23.15;37.74
41140;BME280;26881;48.784;9.192;2023-07-13T07:55:00;98735.03;;;23.59;35.61
41140;BME280;26881;48.784;9.192;2023-07-13T08:00:24;98732.00;;;23.54;35.73
41140;BME280;26881;48.784;9.192;2023-07-13T08:05:47;98736.31;;;23.80;35.04
41140;BME280;26881;48.784;9.192;2023-07-13T08:11:28;98736.25;;;23.96;34.10
41140;BME280;26881;48.784;9.192;2023-07-13T08:16:51;98737.25;;;24.03;34.41
41140;BME280;26881;48.784;9.192;2023-07-13T08:22:12;98731.34;;;24.16;34.10
41140;BME280;26881;48.784;9.192;2023-07-13T08:27:32;98732.72;;;24.51;33.29
41140;BME280;26881;48.784;9.192;2023-07-13T08:32:53;98734.59;;;24.74;33.55
41140;BME280;26881;48.784;9.192;2023-07-13T08:38:15;98726.19;;;24.77;33.47
41140;BME280;26881;48.784;9.192;2023-07-13T08:43:37;98740.28;;;24.71;32.98
41140;BME280;26881;48.784;9.192;2023-07-13T08:49:19;98727.75;;;24.94;33.55
41140;BME280;26881;48.784;9.192;2023-07-13T08:54:47;98743.75;;;25.02;33.57
41140;BME280;26881;48.784;9.192;2023-07-13T09:00:11;98730.91;;;25.74;32.99
41140;BME280;26881;48.784;9.192;2023-07-13T09:05:40;98734.19;;;25.46;33.58
41140;BME280;26881;48.784;9.192;2023-07-13T09:16:34;98749.72;;;25.80;32.78
41140;BME280;26881;48.784;9.192;2023-07-13T09:21:55;98725.56;;;25.74;32.57
41140;BME280;26881;48.784;9.192;2023-07-13T09:27:22;98741.81;;;25.87;32.20
41140;BME280;26881;48.784;9.192;2023-07-13T09:32:47;98734.09;;;25.92;32.78
41140;BME280;26881;48.784;9.192;2023-07-13T09:38:16;98734.75;;;27.03;31.31
41140;BME280;26881;48.784;9.192;2023-07-13T09:43:36;98733.03;;;27.95;28.97
41140;BME280;26881;48.784;9.192;2023-07-13T09:48:56;98727.63;;;27.32;29.39
41140;BME280;26881;48.784;9.192;2023-07-13T09:54:19;98738.53;;;26.51;30.44
41140;BME280;26881;48.784;9.192;2023-07-13T09:59:50;98725.16;;;27.65;28.20
41140;BME280;26881;48.784;9.192;2023-07-13T10:05:14;98715.75;;;27.83;28.90
41140;BME280;26881;48.784;9.192;2023-07-13T10:10:35;98710.72;;;28.08;28.68
41140;BME280;26881;48.784;9.192;2023-07-13T10:15:56;98714.03;;;28.51;27.95
41140;BME280;26881;48.784;9.192;2023-07-13T10:21:19;98721.16;;;28.99;27.05
41140;BME280;26881;48.784;9.192;2023-07-13T10:32:35;98712.31;;;28.44;27.95
41140;BME280;26881;48.784;9.192;2023-07-13T10:38:01;98718.25;;;29.00;26.95
41140;BME280;26881;48.784;9.192;2023-07-13T10:43:33;98727.59;;;26.67;29.76
41140;BME280;26881;48.784;9.192;2023-07-13T10:49:01;98717.19;;;27.01;29.61
41140;BME280;26881;48.784;9.192;2023-07-13T10:54:31;98723.25;;;27.31;29.70
41140;BME280;26881;48.784;9.192;2023-07-13T11:00:14;98713.41;;;27.73;29.27
41140;BME280;26881;48.784;9.192;2023-07-13T11:05:36;98699.00;;;28.84;28.36
41140;BME280;26881;48.784;9.192;2023-07-13T11:10:58;98695.81;;;29.93;26.55
41140;BME280;26881;48.784;9.192;2023-07-13T11:27:41;98681.72;;;29.91;27.37
41140;BME280;26881;48.784;9.192;2023-07-13T11:43:55;98677.69;;;30.59;25.63
41140;BME280;26881;48.784;9.192;2023-07-13T11:49:19;98670.44;;;30.53;24.76
41140;BME280;26881;48.784;9.192;2023-07-13T11:54:48;98677.22;;;31.00;23.95
41140;BME280;26881;48.784;9.192;2023-07-13T12:00:22;98683.88;;;29.49;26.36
41140;BME280;26881;48.784;9.192;2023-07-13T12:05:56;98688.75;;;29.99;26.43
41140;BME280;26881;48.784;9.192;2023-07-13T12:11:18;98674.66;;;31.74;24.80
41140;BME280;26881;48.784;9.192;2023-07-13T12:16:40;98678.72;;;31.83;23.53
41140;BME280;26881;48.784;9.192;2023-07-13T12:22:03;98677.59;;;29.89;25.13
41140;BME280;26881;48.784;9.192;2023-07-13T12:27:27;98676.53;;;31.55;24.22
41140;BME280;26881;48.784;9.192;2023-07-13T12:33:23;98652.97;;;33.72;21.59
41140;BME280;26881;48.784;9.192;2023-07-13T12:38:45;98663.47;;;34.50;21.09
41140;BME280;26881;48.784;9.192;2023-07-13T12:44:11;98673.34;;;32.50;21.81
41140;BME280;26881;48.784;9.192;2023-07-13T12:49:33;98672.59;;;29.92;24.47
41140;BME280;26881;48.784;9.192;2023-07-13T12:55:03;98654.84;;;31.99;23.73
41140;BME280;26881;48.784;9.192;2023-07-13T13:00:35;98666.19;;;35.46;19.74
41140;BME280;26881;48.784;9.192;2023-07-13T13:06:03;98655.72;;;36.21;18.42
41140;BME280;26881;48.784;9.192;2023-07-13T13:11:25;98639.97;;;37.09;17.63
41140;BME280;26881;48.784;9.192;2023-07-13T13:16:48;98650.13;;;37.19;17.52
41140;BME280;26881;48.784;9.192;2023-07-13T13:22:11;98653.94;;;36.86;16.47
41140;BME280;26881;48.784;9.192;2023-07-13T13:27:33;98657.38;;;35.22;18.06
41140;BME280;26881;48.784;9.192;2023-07-13T13:32:54;98654.66;;;35.39;18.21
41140;BME280;26881;48.784;9.192;2023-07-13T13:38:21;98664.75;;;33.90;19.86
41140;BME280;26881;48.784;9.192;2023-07-13T13:43:46;98649.88;;;36.88;17.46
41140;BME280;26881;48.784;9.192;2023-07-13T13:54:51;98651.44;;;37.54;15.61
41140;BME280;26881;48.784;9.192;2023-07-13T14:00:20;98654.69;;;32.96;19.44
41140;BME280;26881;48.784;9.192;2023-07-13T14:05:42;98657.09;;;31.21;21.63
41140;BME280;26881;48.784;9.192;2023-07-13T14:11:04;98631.25;;;32.36;21.21
41140;BME280;26881;48.784;9.192;2023-07-13T14:16:29;98621.06;;;35.50;18.80
41140;BME280;26881;48.784;9.192;2023-07-13T14:21:53;98634.97;;;35.15;18.13
41140;BME280;26881;48.784;9.192;2023-07-13T14:27:16;98644.56;;;32.49;21.25
41140;BME280;26881;48.784;9.192;2023-07-13T14:32:38;98648.66;;;31.55;22.00
41140;BME280;26881;48.784;9.192;2023-07-13T14:37:59;98645.72;;;31.56;22.19
41140;BME280;26881;48.784;9.192;2023-07-13T14:43:21;98644.47;;;34.21;19.03
41140;BME280;26881;48.784;9.192;2023-07-13T14:48:43;98639.59;;;34.97;18.32
41140;BME280;26881;48.784;9.192;2023-07-13T14:54:08;98643.34;;;34.96;18.59
41140;BME280;26881;48.784;9.192;2023-07-13T14:59:31;98655.59;;;35.50;17.99
41140;BME280;26881;48.784;9.192;2023-07-13T15:04:53;98645.25;;;36.35;17.01
41140;BME280;26881;48.784;9.192;2023-07-13T15:10:22;98637.97;;;36.67;16.83
41140;BME280;26881;48.784;9.192;2023-07-13T15:15:49;98655.16;;;35.19;18.35
41140;BME280;26881;48.784;9.192;2023-07-13T15:21:14;98651.19;;;34.76;18.93
41140;BME280;26881;48.784;9.192;2023-07-13T15:26:38;98656.38;;;34.32;18.82
41140;BME280;26881;48.784;9.192;2023-07-13T15:32:00;98633.47;;;35.24;18.45
41140;BME280;26881;48.784;9.192;2023-07-13T15:37:22;98652.44;;;32.81;20.22
41140;BME280;26881;48.784;9.192;2023-07-13T15:42:45;98650.41;;;33.30;20.54
41140;BME280;26881;48.784;9.192;2023-07-13T15:53:38;98658.28;;;30.37;22.66
41140;BME280;26881;48.784;9.192;2023-07-13T15:59:01;98649.38;;;32.05;21.32
41140;BME280;26881;48.784;9.192;2023-07-13T16:04:24;98652.31;;;32.76;20.70
41140;BME280;26881;48.784;9.192;2023-07-13T16:09:46;98642.84;;;33.21;19.76
41140;BME280;26881;48.784;9.192;2023-07-13T16:15:19;98639.16;;;32.91;20.20
41140;BME280;26881;48.784;9.192;2023-07-13T16:20:40;98648.66;;;32.70;20.46
41140;BME280;26881;48.784;9.192;2023-07-13T16:26:07;98653.69;;;32.06;21.47
41140;BME280;26881;48.784;9.192;2023-07-13T16:31:38;98658.00;;;30.52;22.77
41140;BME280;26881;48.784;9.192;2023-07-13T16:37:14;98657.56;;;29.05;24.58
41140;BME280;26881;48.784;9.192;2023-07-13T16:42:36;98656.56;;;29.26;24.98
41140;BME280;26881;48.784;9.192;2023-07-13T16:47:59;98658.63;;;29.10;25.18
41140;BME280;26881;48.784;9.192;2023-07-13T16:53:26;98669.13;;;28.58;25.29
41140;BME280;26881;48.784;9.192;2023-07-13T16:58:49;98671.47;;;28.20;26.14
41140;BME280;26881;48.784;9.192;2023-07-13T17:04:16;98664.03;;;27.74;27.16
41140;BME280;26881;48.784;9.192;2023-07-13T17:09:44;98673.41;;;27.00;28.27
41140;BME280;26881;48.784;9.192;2023-07-13T17:15:09;98678.72;;;26.94;28.16
41140;BME280;26881;48.784;9.192;2023-07-13T17:20:34;98682.59;;;27.12;27.75
41140;BME280;26881;48.784;9.192;2023-07-13T17:25:59;98682.16;;;27.09;28.29
41140;BME280;26881;48.784;9.192;2023-07-13T17:31:21;98687.31;;;26.46;28.82
41140;BME280;26881;48.784;9.192;2023-07-13T17:36:44;98689.13;;;26.24;29.72
41140;BME280;26881;48.784;9.192;2023-07-13T17:42:06;98691.38;;;25.76;30.38
41140;BME280;26881;48.784;9.192;2023-07-13T17:47:27;98698.03;;;25.95;29.81
41140;BME280;26881;48.784;9.192;2023-07-13T17:52:48;98701.28;;;25.90;30.29
41140;BME280;26881;48.784;9.192;2023-07-13T17:58:09;98705.31;;;25.56;31.10
41140;BME280;26881;48.784;9.192;2023-07-13T18:03:29;98709.44;;;25.59;31.17
41140;BME280;26881;48.784;9.192;2023-07-13T18:08:54;98707.22;;;25.48;31.30
41140;BME280;26881;48.784;9.192;2023-07-13T18:14:15;98714.13;;;25.27;31.89
41140;BME280;26881;48.784;9.192;2023-07-13T18:19:38;98721.31;;;25.27;32.26
41140;BME280;26881;48.784;9.192;2023-07-13T18:25:01;98728.63;;;25.33;32.29
41140;BME280;26881;48.784;9.192;2023-07-13T18:30:23;98727.22;;;25.22;32.40
41140;BME280;26881;48.784;9.192;2023-07-13T18:35:43;98738.75;;;24.99;32.68
41140;BME280;26881;48.784;9.192;2023-07-13T18:41:04;98732.50;;;24.84;32.97
41140;BME280;26881;48.784;9.192;2023-07-13T18:46:26;98747.31;;;24.72;33.49
41140;BME280;26881;48.784;9.192;2023-07-13T18:51:52;98752.09;;;24.53;33.97
41140;BME280;26881;48.784;9.192;2023-07-13T18:57:12;98762.31;;;24.42;34.35
41140;BME280;26881;48.784;9.192;2023-07-13T19:02:32;98764.50;;;24.38;34.35
41140;BME280;26881;48.784;9.192;2023-07-13T19:07:54;98765.88;;;24.34;34.47
41140;BME280;26881;48.784;9.192;2023-07-13T19:13:27;98770.75;;;24.22;34.85
41140;BME280;26881;48.784;9.192;2023-07-13T19:18:48;98774.97;;;24.08;35.42
41140;BME280;26881;48.784;9.192;2023-07-13T19:24:14;98785.06;;;23.90;35.93
41140;BME280;26881;48.784;9.192;2023-07-13T19:29:35;98789.56;;;23.89;35.72
41140;BME280;26881;48.784;9.192;2023-07-13T19:34:57;98807.09;;;23.84;36.54
41140;BME280;26881;48.784;9.192;2023-07-13T19:40:21;98805.75;;;23.80;36.57
41140;BME280;26881;48.784;9.192;2023-07-13T19:45:43;98817.09;;;23.73;36.68
41140;BME280;26881;48.784;9.192;2023-07-13T19:51:03;98827.63;;;23.67;36.51
41140;BME280;26881;48.784;9.192;2023-07-13T19:56:24;98830.28;;;23.59;36.74
41140;BME280;26881;48.784;9.192;2023-07-13T20:01:44;98832.13;;;23.58;37.76
41140;BME280;26881;48.784;9.192;2023-07-13T20:07:13;98842.97;;;23.48;37.56
41140;BME280;26881;48.784;9.192;2023-07-13T20:12:35;98856.16;;;23.42;37.33
41140;BME280;26881;48.784;9.192;2023-07-13T20:17:58;98864.47;;;23.22;38.17
41140;BME280;26881;48.784;9.192;2023-07-13T20:23:21;98862.78;;;23.13;38.25
41140;BME280;26881;48.784;9.192;2023-07-13T20:28:47;98870.78;;;23.13;38.69
41140;BME280;26881;48.784;9.192;2023-07-13T20:34:22;98875.47;;;23.11;40.34
41140;BME280;26881;48.784;9.192;2023-07-13T20:39:44;98871.78;;;23.12;39.03
41140;BME280;26881;48.784;9.192;2023-07-13T20:45:05;98871.47;;;23.15;38.76
41140;BME280;26881;48.784;9.192;2023-07-13T20:50:28;98867.94;;;23.06;40.52
41140;BME280;26881;48.784;9.192;2023-07-13T20:55:49;98877.03;;;22.96;39.39
41140;BME280;26881;48.784;9.192;2023-07-13T21:01:15;98875.81;;;22.82;39.80
41140;BME280;26881;48.784;9.192;2023-07-13T21:06:40;98875.63;;;22.67;39.73
41140;BME280;26881;48.784;9.192;2023-07-13T21:12:02;98879.78;;;22.61;40.25
41140;BME280;26881;48.784;9.192;2023-07-13T21:17:24;98883.81;;;22.13;41.75
41140;BME280;26881;48.784;9.192;2023-07-13T21:22:46;98876.09;;;21.84;42.87
41140;BME280;26881;48.784;9.192;2023-07-13T21:28:08;98887.00;;;21.73;43.59
41140;BME280;26881;48.784;9.192;2023-07-13T21:33:30;98877.13;;;21.65;44.08
41140;BME280;26881;48.784;9.192;2023-07-13T21:38:56;98887.84;;;21.55;43.86
41140;BME280;26881;48.784;9.192;2023-07-13T21:44:30;98889.81;;;21.35;44.70
41140;BME280;26881;48.784;9.192;2023-07-13T21:49:52;98899.81;;;21.23;45.03
41140;BME280;26881;48.784;9.192;2023-07-13T21:55:22;98899.88;;;21.14;45.30
41140;BME280;26881;48.784;9.192;2023-07-13T22:00:44;98905.03;;;20.97;45.63
41140;BME280;26881;48.784;9.192;2023-07-13T22:06:16;98904.56;;;20.74;46.43
41140;BME280;26881;48.784;9.192;2023-07-13T22:11:40;98902.34;;;20.70;46.37
41140;BME280;26881;48.784;9.192;2023-07-13T22:17:02;98911.38;;;20.49;47.06
41140;BME280;26881;48.784;9.192;2023-07-13T22:22:24;98909.34;;;20.33;47.04
41140;BME280;26881;48.784;9.192;2023-07-13T22:27:47;98904.31;;;20.20;47.55
41140;BME280;26881;48.784;9.192;2023-07-13T22:33:14;98903.69;;;19.99;48.10
41140;BME280;26881;48.784;9.192;2023-07-13T22:38:36;98915.81;;;20.02;48.52
41140;BME280;26881;48.784;9.192;2023-07-13T22:43:59;98914.59;;;19.96;48.58
41140;BME280;26881;48.784;9.192;2023-07-13T22:49:26;98914.31;;;19.89;48.60
41140;BME280;26881;48.784;9.192;2023-07-13T22:54:51;98916.41;;;19.76;48.62
41140;BME280;26881;48.784;9.192;2023-07-13T23:00:18;98918.75;;;19.59;49.14
41140;BME280;26881;48.784;9.192;2023-07-13T23:05:40;98911.22;;;19.45;49.64
41140;BME280;26881;48.784;9.192;2023-07-13T23:11:02;98915.41;;;19.28;50.22
41140;BME280;26881;48.784;9.192;2023-07-13T23:16:27;98911.75;;;19.20;50.55
41140;BME280;26881;48.784;9.192;2023-07-13T23:21:51;98912.84;;;19.07;51.28
41140;BME280;26881;48.784;9.192;2023-07-13T23:27:14;98898.88;;;19.05;51.35
41140;BME280;26881;48.784;9.192;2023-07-13T23:32:35;98903.06;;;19.08;51.03
41140;BME280;26881;48.784;9.192;2023-07-13T23:37:58;98900.97;;;19.02;51.57
41140;BME280;26881;48.784;9.192;2023-07-13T23:43:20;98892.34;;;19.09;51.38
41140;BME280;26881;48.784;9.192;2023-07-13T23:48:42;98897.19;;;18.94;51.35
41140;BME280;26881;48.784;9.192;2023-07-13T23:54:10;98896.88;;;18.88;51.39
41140;BME280;26881;48.784;9.192;2023-07-13T23:59:33;98883.84;;;18.65;52.46
